Time;durP1;ratioP1;P1;durP2;ratioP2;P2;SDS_P1;SDS_P2;PMS_P1;PMS_P2;Temp;Humidity;BMP_temperature;BMP_pressure;BME280_temperature;BME280_humidity;BME280_pressure;Samples;Min_cycle;Max_cycle;Signal;HPM_P1;HPM_P2
2022/08/28 00:01:18;;;;;;;0.50;0.40;;;17.70;99.90;;;;;;5032573;28;20531;-76
2022/08/28 00:03:45;;;;;;;1.13;0.93;;;17.80;99.90;;;;;;5032579;28;20794;-75
2022/08/28 00:06:13;;;;;;;3.63;1.40;;;17.70;99.90;;;;;;5032246;28;20870;-77
2022/08/28 00:08:40;;;;;;;1.80;1.23;;;17.60;99.90;;;;;;5032182;28;20517;-77
2022/08/28 00:11:07;;;;;;;0.50;0.40;;;17.60;99.90;;;;;;5032179;28;20500;-77
2022/08/28 00:13:34;;;;;;;0.50;0.33;;;17.60;99.90;;;;;;5032135;28;20525;-77
2022/08/28 00:16:01;;;;;;;0.50;0.40;;;17.50;99.90;;;;;;5031666;28;20532;-77
2022/08/28 00:18:28;;;;;;;0.50;0.33;;;17.50;99.90;;;;;;5032311;28;20665;-76
2022/08/28 00:20:55;;;;;;;0.50;0.40;;;17.50;99.90;;;;;;5032230;28;20438;-76
2022/08/28 00:23:25;;;;;;;0.50;0.40;;;17.40;99.90;;;;;;5031678;28;20529;-78
2022/08/28 00:25:52;;;;;;;0.50;0.40;;;17.30;99.90;;;;;;5031516;28;20446;-77
2022/08/28 00:28:18;;;;;;;0.50;0.40;;;17.20;99.90;;;;;;5032290;28;20465;-77
2022/08/28 00:30:47;;;;;;;0.50;0.40;;;17.20;99.90;;;;;;5031909;28;20935;-77
2022/08/28 00:33:17;;;;;;;0.50;0.40;;;17.20;99.90;;;;;;5031917;28;20453;-77
2022/08/28 00:35:44;;;;;;;0.50;0.40;;;17.20;99.90;;;;;;5031335;28;20438;-77
2022/08/28 00:38:12;;;;;;;0.50;0.40;;;17.10;99.90;;;;;;5032014;28;20564;-75
2022/08/28 00:40:43;;;;;;;1.43;1.33;;;17.00;99.90;;;;;;5032297;28;20437;-76
2022/08/28 00:43:32;;;;;;;0.50;0.40;;;17.00;99.90;;;;;;5031846;28;20427;-77
2022/08/28 00:45:59;;;;;;;0.60;0.50;;;16.90;99.90;;;;;;5030795;28;20429;-77
2022/08/28 00:48:26;;;;;;;0.50;0.40;;;16.90;99.90;;;;;;5031986;28;20477;-78
2022/08/28 00:53:37;;;;;;;0.50;0.40;;;16.80;99.90;;;;;;5031423;28;20784;-76
2022/08/28 00:56:08;;;;;;;0.50;0.40;;;16.80;99.90;;;;;;5031496;28;20887;-77
2022/08/28 00:58:36;;;;;;;0.50;0.40;;;16.80;99.90;;;;;;5031500;28;20548;-77
2022/08/28 01:01:02;;;;;;;0.50;0.40;;;16.80;99.90;;;;;;5031156;28;20471;-77
2022/08/28 01:03:29;;;;;;;0.50;0.40;;;16.70;99.90;;;;;;5031536;28;20448;-77
2022/08/28 01:05:57;;;;;;;0.50;0.40;;;16.60;99.90;;;;;;5031361;28;20544;-77
2022/08/28 01:08:25;;;;;;;0.57;0.40;;;16.50;99.90;;;;;;5032315;28;20743;-76
2022/08/28 01:10:55;;;;;;;0.50;0.30;;;16.50;99.90;;;;;;5031713;28;20456;-77
2022/08/28 01:13:25;;;;;;;0.50;0.40;;;16.40;99.90;;;;;;5031174;28;20444;-76
2022/08/28 01:15:53;;;;;;;0.50;0.40;;;16.40;99.90;;;;;;5031206;28;20453;-77
2022/08/28 01:18:21;;;;;;;0.50;0.40;;;16.30;99.90;;;;;;5031338;28;21020;-77
2022/08/28 01:20:56;;;;;;;0.93;0.93;;;16.20;99.90;;;;;;5031374;28;20457;-77
2022/08/28 01:23:37;;;;;;;0.50;0.40;;;16.10;99.90;;;;;;5031003;28;20438;-77
2022/08/28 01:26:04;;;;;;;0.50;0.40;;;16.00;99.90;;;;;;5030692;28;20426;-77
2022/08/28 01:28:31;;;;;;;0.97;0.97;;;16.00;99.90;;;;;;5031273;28;20453;-77
2022/08/28 01:30:58;;;;;;;1.10;1.10;;;16.00;99.90;;;;;;5032539;28;20450;-78
2022/08/28 01:33:25;;;;;;;0.50;0.40;;;16.00;99.90;;;;;;5032689;28;20438;-78
2022/08/28 01:35:52;;;;;;;0.53;0.47;;;16.00;99.90;;;;;;5032196;28;20446;-78
2022/08/28 01:38:18;;;;;;;0.50;0.40;;;16.00;99.90;;;;;;5033823;28;20480;-76
2022/08/28 01:40:48;;;;;;;0.50;0.40;;;15.90;99.90;;;;;;5035207;28;20441;-77
2022/08/28 01:43:17;;;;;;;0.50;0.30;;;15.90;99.90;;;;;;5035462;28;20490;-76
2022/08/28 01:45:47;;;;;;;0.50;0.40;;;15.90;99.90;;;;;;5034910;28;20442;-76
2022/08/28 01:48:15;;;;;;;0.50;0.43;;;15.90;99.90;;;;;;5034755;28;20997;-75
2022/08/28 01:50:42;;;;;;;2.90;1.53;;;15.90;99.90;;;;;;5034975;28;20543;-77
2022/08/28 01:53:13;;;;;;;0.50;0.40;;;15.80;99.90;;;;;;5034994;28;20437;-76
2022/08/28 01:55:40;;;;;;;0.50;0.40;;;15.90;99.90;;;;;;5035297;28;20422;-76
2022/08/28 01:58:09;;;;;;;0.50;0.40;;;15.90;99.90;;;;;;5035009;28;20840;-75
2022/08/28 02:00:36;;;;;;;0.50;0.40;;;16.00;99.90;;;;;;5034228;28;20449;-77
2022/08/28 02:03:03;;;;;;;0.50;0.40;;;16.00;99.90;;;;;;5034318;28;20449;-76
2022/08/28 02:05:31;;;;;;;0.50;0.40;;;16.00;99.90;;;;;;5034599;28;20446;-77
2022/08/28 02:08:00;;;;;;;0.50;0.40;;;16.00;99.90;;;;;;5034361;28;20505;-75
2022/08/28 02:10:28;;;;;;;0.50;0.40;;;16.00;99.90;;;;;;5034564;28;20927;-75
2022/08/28 02:12:56;;;;;;;0.50;0.40;;;16.00;99.90;;;;;;5034146;28;20981;-77
2022/08/28 02:15:26;;;;;;;0.50;0.50;;;16.00;99.90;;;;;;5034592;28;20615;-76
2022/08/28 02:17:54;;;;;;;0.50;0.40;;;16.00;99.90;;;;;;5034337;28;20796;-76
2022/08/28 02:20:22;;;;;;;0.50;0.40;;;15.90;99.90;;;;;;5034609;28;20947;-77
2022/08/28 02:22:48;;;;;;;0.50;0.40;;;15.90;99.90;;;;;;5034218;28;20445;-76
2022/08/28 02:25:16;;;;;;;0.50;0.40;;;15.80;99.90;;;;;;5034310;28;20875;-76
2022/08/28 02:27:44;;;;;;;0.60;0.50;;;15.80;99.90;;;;;;5034222;28;20469;-77
2022/08/28 02:30:14;;;;;;;0.50;0.40;;;15.70;99.90;;;;;;5034107;28;20438;-77
2022/08/28 02:32:42;;;;;;;0.50;0.40;;;15.70;99.90;;;;;;5034385;28;20438;-77
2022/08/28 02:35:10;;;;;;;0.50;0.37;;;15.70;99.90;;;;;;5033911;28;20823;-77
2022/08/28 02:37:38;;;;;;;8.30;7.87;;;15.70;99.90;;;;;;5033821;28;20487;-76
2022/08/28 02:40:06;;;;;;;0.50;0.40;;;15.70;99.90;;;;;;5034067;28;20456;-76
2022/08/28 02:42:33;;;;;;;0.73;0.73;;;15.70;99.90;;;;;;5034101;28;20449;-77
2022/08/28 02:45:00;;;;;;;0.50;0.40;;;15.70;99.90;;;;;;5033852;28;20436;-77
2022/08/28 02:47:27;;;;;;;0.50;0.40;;;15.60;99.90;;;;;;5034022;28;20480;-77
2022/08/28 02:49:55;;;;;;;0.50;0.40;;;15.60;99.90;;;;;;5033697;28;20442;-77
2022/08/28 02:52:23;;;;;;;0.50;0.40;;;15.60;99.90;;;;;;5033754;28;20452;-76
2022/08/28 02:54:50;;;;;;;0.50;0.33;;;15.60;99.90;;;;;;5033194;28;20441;-77
2022/08/28 02:57:17;;;;;;;0.50;0.40;;;15.60;99.90;;;;;;5033800;28;20479;-77
2022/08/28 02:59:44;;;;;;;0.50;0.40;;;15.60;99.90;;;;;;5033016;28;20488;-77
2022/08/28 03:02:11;;;;;;;0.50;0.40;;;15.70;99.90;;;;;;5033829;28;20434;-77
2022/08/28 03:04:38;;;;;;;0.50;0.40;;;15.70;99.90;;;;;;5032990;28;20438;-77
2022/08/28 03:07:08;;;;;;;0.50;0.40;;;15.80;99.90;;;;;;5033297;28;20479;-76
2022/08/28 03:09:35;;;;;;;0.50;0.40;;;15.80;99.90;;;;;;5033347;28;20468;-77
2022/08/28 03:12:02;;;;;;;0.50;0.40;;;15.70;99.90;;;;;;5033644;28;20434;-77
2022/08/28 03:14:29;;;;;;;0.50;0.40;;;15.80;99.90;;;;;;5033433;28;20451;-76
2022/08/28 03:16:56;;;;;;;0.50;0.40;;;15.80;99.90;;;;;;5033382;28;20505;-77
2022/08/28 03:19:23;;;;;;;0.50;0.40;;;15.80;99.90;;;;;;5033333;28;20476;-76
2022/08/28 03:21:50;;;;;;;0.50;0.33;;;15.80;99.90;;;;;;5033196;28;20430;-76
2022/08/28 03:24:18;;;;;;;0.50;0.37;;;15.80;99.90;;;;;;5032551;28;20448;-76
2022/08/28 03:26:45;;;;;;;0.50;0.37;;;15.80;99.90;;;;;;5033441;28;20458;-77
2022/08/28 03:29:12;;;;;;;0.50;0.40;;;15.80;99.90;;;;;;5033362;28;20440;-73
2022/08/28 03:31:39;;;;;;;0.50;0.40;;;15.80;99.90;;;;;;5033195;28;20946;-76
2022/08/28 03:34:06;;;;;;;0.50;0.40;;;15.90;99.90;;;;;;5033066;28;20455;-76
2022/08/28 03:36:33;;;;;;;0.50;0.40;;;15.90;99.90;;;;;;5032598;28;20831;-76
2022/08/28 03:39:02;;;;;;;1.13;0.70;;;15.80;99.90;;;;;;5032423;28;20480;-77
2022/08/28 03:41:31;;;;;;;0.50;0.40;;;15.80;99.90;;;;;;5033245;28;20541;-76
2022/08/28 03:43:59;;;;;;;0.50;0.30;;;15.60;99.90;;;;;;5032795;28;20452;-76
2022/08/28 03:46:28;;;;;;;0.50;0.40;;;15.60;99.90;;;;;;5032460;28;20964;-76
2022/08/28 03:48:55;;;;;;;1.10;1.07;;;15.60;99.90;;;;;;5032595;28;20442;-77
2022/08/28 03:51:25;;;;;;;0.50;0.40;;;15.60;99.90;;;;;;5032614;28;20451;-76
2022/08/28 03:53:52;;;;;;;0.60;0.57;;;15.60;99.90;;;;;;5032433;28;20452;-75
2022/08/28 03:56:22;;;;;;;0.90;0.87;;;15.60;99.90;;;;;;5032690;28;20450;-76
2022/08/28 03:58:52;;;;;;;0.50;0.40;;;15.60;99.90;;;;;;5032006;28;20478;-75
2022/08/28 04:01:20;;;;;;;0.50;0.40;;;15.60;99.90;;;;;;5032114;28;20436;-76
2022/08/28 04:03:47;;;;;;;0.50;0.30;;;15.60;99.90;;;;;;5032669;28;20457;-77
2022/08/28 04:06:15;;;;;;;0.50;0.40;;;15.60;99.90;;;;;;5032556;28;20474;-76
2022/08/28 04:08:42;;;;;;;0.50;0.40;;;15.50;99.90;;;;;;5032414;28;20438;-77
2022/08/28 04:11:08;;;;;;;0.50;0.40;;;15.60;99.90;;;;;;5032006;28;20449;-76
2022/08/28 04:13:35;;;;;;;0.50;0.40;;;15.60;99.90;;;;;;5032235;28;20545;-78
2022/08/28 04:16:09;;;;;;;0.50;0.40;;;15.60;99.90;;;;;;5032160;28;20445;-76
2022/08/28 04:18:37;;;;;;;0.50;0.40;;;15.60;99.90;;;;;;5032619;28;20528;-77
2022/08/28 04:21:06;;;;;;;0.50;0.40;;;15.60;99.90;;;;;;5031899;28;20456;-77
2022/08/28 04:23:34;;;;;;;0.70;0.60;;;15.60;99.90;;;;;;5032306;28;20441;-77
2022/08/28 04:26:00;;;;;;;0.50;0.40;;;15.50;99.90;;;;;;5032022;28;20437;-76
2022/08/28 04:28:27;;;;;;;0.50;0.40;;;15.50;99.90;;;;;;5032355;28;20493;-76
2022/08/28 04:30:55;;;;;;;0.50;0.40;;;15.50;99.90;;;;;;5031839;28;20715;-76
2022/08/28 04:33:24;;;;;;;0.50;0.40;;;15.40;99.90;;;;;;5032218;28;20449;-77
2022/08/28 04:35:52;;;;;;;0.50;0.40;;;15.40;99.90;;;;;;5031684;28;20432;-77
2022/08/28 04:38:19;;;;;;;0.50;0.40;;;15.30;99.90;;;;;;5031935;28;20451;-77
2022/08/28 04:40:45;;;;;;;0.50;0.40;;;15.30;99.90;;;;;;5032068;28;20796;-76
2022/08/28 04:43:12;;;;;;;0.70;0.70;;;15.30;99.90;;;;;;5031572;28;20421;-77
2022/08/28 04:45:40;;;;;;;0.50;0.40;;;15.30;99.90;;;;;;5031664;28;20448;-75
2022/08/28 04:48:07;;;;;;;3.40;1.13;;;15.20;99.90;;;;;;5031492;28;20464;-77
2022/08/28 04:50:40;;;;;;;0.50;0.40;;;15.20;99.90;;;;;;5032042;28;20437;-77
2022/08/28 04:53:07;;;;;;;0.50;0.40;;;15.10;99.90;;;;;;5031064;28;20444;-77
2022/08/28 04:55:33;;;;;;;0.60;0.50;;;15.10;99.90;;;;;;5031664;28;20438;-78
2022/08/28 04:58:00;;;;;;;0.50;0.40;;;15.10;99.90;;;;;;5031792;28;20470;-77
2022/08/28 05:00:27;;;;;;;0.50;0.40;;;15.10;99.90;;;;;;5031138;28;20542;-77
2022/08/28 05:02:54;;;;;;;0.50;0.40;;;15.10;99.90;;;;;;5031449;28;20446;-77
2022/08/28 05:05:21;;;;;;;0.50;0.50;;;15.00;99.90;;;;;;5031127;28;20865;-77
2022/08/28 05:07:49;;;;;;;1.03;1.03;;;15.10;99.90;;;;;;5031294;28;20465;-77
2022/08/28 05:10:16;;;;;;;0.50;0.40;;;15.00;99.90;;;;;;5031201;28;20442;-75
2022/08/28 05:12:43;;;;;;;0.50;0.40;;;15.00;99.90;;;;;;5031535;28;20453;-77
2022/08/28 05:15:10;;;;;;;0.50;0.40;;;15.00;99.90;;;;;;5031031;28;20990;-77
2022/08/28 05:17:37;;;;;;;0.60;0.50;;;15.00;99.90;;;;;;5031215;28;20540;-77
2022/08/28 05:20:04;;;;;;;0.70;0.70;;;15.10;99.90;;;;;;5031471;28;20481;-77
2022/08/28 05:22:32;;;;;;;0.50;0.40;;;15.10;99.90;;;;;;5031707;28;20442;-75
2022/08/28 05:25:00;;;;;;;0.67;0.67;;;15.20;99.90;;;;;;5031147;28;20797;-77
2022/08/28 05:27:27;;;;;;;0.50;0.40;;;15.20;99.90;;;;;;5031454;28;20959;-77
2022/08/28 05:29:54;;;;;;;0.50;0.50;;;15.20;99.90;;;;;;5030964;28;20430;-77
2022/08/28 05:32:21;;;;;;;0.50;0.40;;;15.30;99.90;;;;;;5031656;28;20442;-77
2022/08/28 05:34:48;;;;;;;0.50;0.40;;;15.30;99.90;;;;;;5031124;28;20438;-76
2022/08/28 05:37:15;;;;;;;0.50;0.40;;;15.40;99.90;;;;;;5031530;28;20963;-77
2022/08/28 05:39:42;;;;;;;0.50;0.40;;;15.50;99.90;;;;;;5030952;28;20567;-77
2022/08/28 05:42:10;;;;;;;0.50;0.40;;;15.50;99.90;;;;;;5031111;28;20449;-77
2022/08/28 05:44:37;;;;;;;0.50;0.40;;;15.60;99.90;;;;;;5030738;28;20438;-76
2022/08/28 05:47:04;;;;;;;0.50;0.40;;;15.70;99.90;;;;;;5031292;28;20468;-78
2022/08/28 05:49:31;;;;;;;0.50;0.30;;;15.70;99.90;;;;;;5031428;28;20445;-77
2022/08/28 05:51:57;;;;;;;0.50;0.40;;;15.70;99.90;;;;;;5031097;28;20579;-77
2022/08/28 05:54:24;;;;;;;0.50;0.40;;;15.80;99.90;;;;;;5030674;28;20489;-77
2022/08/28 05:56:51;;;;;;;0.50;0.40;;;15.90;99.90;;;;;;5031123;28;20519;-77
2022/08/28 05:59:19;;;;;;;0.50;0.40;;;15.90;99.90;;;;;;5030709;28;20488;-77
2022/08/28 06:01:48;;;;;;;0.50;0.37;;;16.10;99.90;;;;;;5030761;28;20861;-77
2022/08/28 06:04:17;;;;;;;0.50;0.40;;;16.00;99.90;;;;;;5030723;28;20449;-77
2022/08/28 06:06:45;;;;;;;0.50;0.40;;;16.10;99.90;;;;;;5030875;28;20516;-78
2022/08/28 06:09:14;;;;;;;0.50;0.37;;;16.30;99.90;;;;;;5030709;28;20438;-77
2022/08/28 06:11:43;;;;;;;0.50;0.40;;;16.60;99.90;;;;;;5030904;28;20512;-77
2022/08/28 06:14:12;;;;;;;13.63;2.53;;;16.70;99.90;;;;;;5030739;28;20448;-77
2022/08/28 06:16:42;;;;;;;0.50;0.40;;;16.90;99.90;;;;;;5030548;28;20484;-77
2022/08/28 06:19:11;;;;;;;0.60;0.40;;;17.00;99.90;;;;;;5031139;28;20481;-77
2022/08/28 06:21:40;;;;;;;0.70;0.70;;;17.10;99.90;;;;;;5030711;28;20438;-77
2022/08/28 06:24:07;;;;;;;0.60;0.57;;;17.30;99.90;;;;;;5032005;28;20545;-77
2022/08/28 06:26:34;;;;;;;0.50;0.40;;;17.20;99.90;;;;;;5034515;28;20458;-77
2022/08/28 06:29:02;;;;;;;0.50;0.40;;;17.40;99.90;;;;;;5034644;28;20445;-78
2022/08/28 06:31:29;;;;;;;0.50;0.30;;;17.50;99.90;;;;;;5034202;28;20958;-77
2022/08/28 06:34:00;;;;;;;0.50;0.40;;;17.70;99.90;;;;;;5033873;28;20437;-76
2022/08/28 06:36:29;;;;;;;0.50;0.30;;;17.80;99.90;;;;;;5034005;28;20472;-78
2022/08/28 06:38:58;;;;;;;0.50;0.30;;;17.60;99.90;;;;;;5034239;28;20529;-78
2022/08/28 06:41:26;;;;;;;0.50;0.37;;;18.00;99.90;;;;;;5034292;28;20541;-78
2022/08/28 06:43:53;;;;;;;2.10;0.90;;;18.00;99.90;;;;;;5033923;28;20442;-77
2022/08/28 06:46:20;;;;;;;2.00;1.90;;;18.30;99.90;;;;;;5034694;28;20800;-75
2022/08/28 06:48:47;;;;;;;0.73;0.73;;;18.80;99.90;;;;;;5034243;28;20452;-77
2022/08/28 06:51:16;;;;;;;0.50;0.30;;;19.20;99.90;;;;;;5033846;28;20935;-78
2022/08/28 06:53:44;;;;;;;0.50;0.40;;;20.50;99.90;;;;;;5033864;28;20444;-78
2022/08/28 06:56:13;;;;;;;0.50;0.30;;;22.20;99.90;;;;;;5033721;28;20552;-76
2022/08/28 06:58:42;;;;;;;0.50;0.30;;;23.70;99.90;;;;;;5033767;28;20533;-78
2022/08/28 07:01:11;;;;;;;0.50;0.30;;;24.90;99.90;;;;;;5033342;28;20476;-78
2022/08/28 07:03:39;;;;;;;0.50;0.30;;;26.40;99.90;;;;;;5033853;28;20532;-78
2022/08/28 07:06:07;;;;;;;0.67;0.67;;;28.10;91.90;;;;;;5033826;28;20448;-78
2022/08/28 07:08:37;;;;;;;0.50;0.30;;;30.10;81.40;;;;;;5034368;28;20442;-78
2022/08/28 07:11:10;;;;;;;0.50;0.30;;;31.40;73.70;;;;;;5034575;28;20443;-76
2022/08/28 07:13:37;;;;;;;0.50;0.30;;;32.20;66.30;;;;;;5033382;28;20442;-78
2022/08/28 07:16:04;;;;;;;0.50;0.30;;;33.40;63.40;;;;;;5033233;28;20444;-78
2022/08/28 07:18:31;;;;;;;0.50;0.30;;;33.40;59.40;;;;;;5033162;28;20466;-78
2022/08/28 07:20:59;;;;;;;0.50;0.30;;;32.80;58.50;;;;;;5033151;28;20474;-78
2022/08/28 07:23:26;;;;;;;0.50;0.30;;;32.30;58.90;;;;;;5033319;28;20541;-78
2022/08/28 07:25:54;;;;;;;0.50;0.30;;;31.10;59.00;;;;;;5032831;28;20438;-78
2022/08/28 07:28:22;;;;;;;0.50;0.40;;;30.30;60.90;;;;;;5032968;28;20461;-78
2022/08/28 07:30:56;;;;;;;0.50;0.30;;;29.20;61.90;;;;;;5033533;28;20438;-78
2022/08/28 07:33:23;;;;;;;0.50;0.30;;;28.40;65.90;;;;;;5033233;28;20441;-78
2022/08/28 07:35:50;;;;;;;0.50;0.30;;;27.60;67.50;;;;;;5031597;28;20960;-78
2022/08/28 07:38:17;;;;;;;0.50;0.30;;;27.30;69.40;;;;;;5032622;28;20469;-78
2022/08/28 07:40:44;;;;;;;0.60;0.40;;;27.90;70.40;;;;;;5033057;28;20842;-78
2022/08/28 07:45:58;;;;;;;0.80;0.53;;;28.60;68.00;;;;;;5032414;28;20418;-77
2022/08/28 07:48:25;;;;;;;0.50;0.30;;;29.10;66.20;;;;;;5032596;28;20835;-78
2022/08/28 07:50:52;;;;;;;0.50;0.40;;;29.10;65.50;;;;;;5033303;28;20445;-78
2022/08/28 07:53:19;;;;;;;0.50;0.30;;;29.90;65.50;;;;;;5032184;28;20931;-78
2022/08/28 07:55:48;;;;;;;0.50;0.37;;;30.00;62.70;;;;;;5032219;28;20446;-78
2022/08/28 07:58:16;;;;;;;1.03;1.03;;;30.40;63.70;;;;;;5032592;28;20476;-78
2022/08/28 08:00:43;;;;;;;0.60;0.50;;;30.10;62.90;;;;;;5032226;28;20473;-77
2022/08/28 08:03:10;;;;;;;0.50;0.30;;;29.60;61.40;;;;;;5032709;28;20525;-78
2022/08/28 08:05:37;;;;;;;0.90;0.47;;;29.00;62.30;;;;;;5031974;28;20477;-78
2022/08/28 08:08:04;;;;;;;1.23;0.80;;;29.40;64.20;;;;;;5032261;28;20846;-78
2022/08/28 08:10:31;;;;;;;0.60;0.40;;;29.30;61.80;;;;;;5032669;28;20461;-78
2022/08/28 08:12:58;;;;;;;0.50;0.30;;;29.80;61.20;;;;;;5032140;28;20978;-78
2022/08/28 08:15:26;;;;;;;0.50;0.30;;;29.40;61.50;;;;;;5031741;28;20438;-76
2022/08/28 08:17:53;;;;;;;0.50;0.30;;;30.20;61.60;;;;;;5032170;28;21062;-78
2022/08/28 08:20:20;;;;;;;0.50;0.30;;;31.10;59.50;;;;;;5031923;28;20477;-78
2022/08/28 08:22:46;;;;;;;0.50;0.30;;;32.10;58.40;;;;;;5032107;28;20440;-78
2022/08/28 08:25:13;;;;;;;0.50;0.30;;;32.50;58.50;;;;;;5032039;28;20470;-78
2022/08/28 08:27:40;;;;;;;0.60;0.50;;;33.80;57.10;;;;;;5032100;28;20537;-78
2022/08/28 08:30:08;;;;;;;0.50;0.30;;;33.50;54.10;;;;;;5031940;28;20470;-78
2022/08/28 08:32:38;;;;;;;0.50;0.30;;;33.40;55.60;;;;;;5031949;28;20517;-77
2022/08/28 08:35:05;;;;;;;0.50;0.40;;;33.70;53.80;;;;;;5031837;28;20773;-78
2022/08/28 08:37:32;;;;;;;0.50;0.40;;;33.50;53.30;;;;;;5031548;28;20462;-79
2022/08/28 08:39:59;;;;;;;1.80;0.50;;;33.80;53.70;;;;;;5031976;28;20496;-78
2022/08/28 08:42:30;;;;;;;0.50;0.30;;;32.70;52.60;;;;;;5031593;28;20533;-78
2022/08/28 08:44:58;;;;;;;0.50;0.30;;;31.60;53.70;;;;;;5031271;28;20444;-77
2022/08/28 08:47:35;;;;;;;0.50;0.30;;;31.50;55.40;;;;;;5031566;28;20476;-78
2022/08/28 08:50:06;;;;;;;0.50;0.30;;;32.10;54.30;;;;;;5031580;28;20424;-78
2022/08/28 08:52:51;;;;;;;0.50;0.30;;;31.40;54.20;;;;;;5031614;28;20916;-77
2022/08/28 08:55:24;;;;;;;1.83;0.50;;;30.60;55.90;;;;;;5031157;28;20545;-78
2022/08/28 08:57:56;;;;;;;0.50;0.30;;;30.60;55.70;;;;;;5031528;28;20466;-78
2022/08/28 09:00:24;;;;;;;0.50;0.40;;;30.80;56.70;;;;;;5031473;28;20469;-78
2022/08/28 09:02:56;;;;;;;0.50;0.43;;;31.50;56.10;;;;;;5031464;28;20525;-78
2022/08/28 09:05:38;;;;;;;0.60;0.60;;;32.50;54.20;;;;;;5031167;28;20418;-75
2022/08/28 09:08:08;;;;;;;0.63;0.63;;;33.20;53.60;;;;;;5031297;28;20470;-79
2022/08/28 09:10:38;;;;;;;0.50;0.30;;;33.20;53.00;;;;;;5031496;28;20529;-78
2022/08/28 09:13:14;;;;;;;0.80;0.80;;;32.80;53.10;;;;;;5031118;28;20434;-78
2022/08/28 09:15:45;;;;;;;0.93;0.93;;;32.00;52.70;;;;;;5030851;28;20438;-77
2022/08/28 09:18:17;;;;;;;0.50;0.30;;;31.30;53.40;;;;;;5031234;28;20520;-78
2022/08/28 09:20:49;;;;;;;1.00;0.60;;;31.50;54.60;;;;;;5031223;28;20481;-79
2022/08/28 09:23:16;;;;;;;0.50;0.30;;;32.30;52.70;;;;;;5031057;28;20916;-78
2022/08/28 09:25:52;;;;;;;0.50;0.30;;;33.50;52.30;;;;;;5031204;28;20452;-78
2022/08/28 09:28:22;;;;;;;0.50;0.30;;;34.50;51.00;;;;;;5031345;28;21041;-78
2022/08/28 09:30:56;;;;;;;0.50;0.30;;;34.40;50.70;;;;;;5031975;28;20434;-78
2022/08/28 09:33:32;;;;;;;0.50;0.30;;;34.90;51.00;;;;;;5030788;28;20516;-77
2022/08/28 09:36:25;;;;;;;0.50;0.30;;;35.20;49.20;;;;;;5031019;28;20437;-78
2022/08/28 09:39:09;;;;;;;0.50;0.30;;;35.20;49.70;;;;;;5031250;28;20433;-79
2022/08/28 09:44:24;;;;;;;0.50;0.30;;;35.90;47.10;;;;;;5030632;28;20405;-74
2022/08/28 09:46:52;;;;;;;0.50;0.30;;;35.60;47.70;;;;;;5031120;28;20508;-78
2022/08/28 09:49:24;;;;;;;0.40;0.30;;;35.60;47.80;;;;;;5031015;28;20446;-77
2022/08/28 09:51:53;;;;;;;0.47;0.30;;;35.40;47.20;;;;;;5030994;28;20437;-77
2022/08/28 09:54:26;;;;;;;0.50;0.30;;;35.70;47.80;;;;;;5030637;28;20857;-78
2022/08/28 09:56:54;;;;;;;0.47;0.30;;;36.20;47.50;;;;;;5031112;28;20462;-77
2022/08/28 09:59:23;;;;;;;1.53;0.83;;;36.30;47.10;;;;;;5032953;28;20434;-78
2022/08/28 10:02:00;;;;;;;0.43;0.30;;;36.80;45.40;;;;;;5035098;28;20572;-78
2022/08/28 10:04:37;;;;;;;0.40;0.30;;;36.80;45.80;;;;;;5034702;28;20814;-78
2022/08/28 10:07:12;;;;;;;0.40;0.30;;;37.00;45.80;;;;;;5034286;28;20580;-78
2022/08/28 10:09:48;;;;;;;11.43;0.67;;;37.20;45.10;;;;;;5034770;28;20496;-79
2022/08/28 10:12:33;;;;;;;0.40;0.30;;;37.70;45.10;;;;;;5034873;28;20815;-78
2022/08/28 10:15:08;;;;;;;0.40;0.30;;;37.60;44.40;;;;;;5036144;28;20425;-77
2022/08/28 10:17:43;;;;;;;0.40;0.30;;;36.80;44.70;;;;;;5036425;28;20457;-77
2022/08/28 10:20:17;;;;;;;0.40;0.30;;;36.70;44.60;;;;;;5035808;28;20434;-77
2022/08/28 10:22:54;;;;;;;0.40;0.30;;;37.20;44.60;;;;;;5036883;28;20451;-77
2022/08/28 10:25:27;;;;;;;6.37;0.57;;;38.40;44.90;;;;;;5036496;28;20433;-77
2022/08/28 10:28:09;;;;;;;0.40;0.30;;;38.90;44.00;;;;;;5036739;28;20453;-79
2022/08/28 10:30:39;;;;;;;3.63;1.63;;;38.70;42.50;;;;;;5035762;28;20476;-77
2022/08/28 10:33:33;;;;;;;0.50;0.30;;;36.50;42.90;;;;;;5035250;28;20922;-77
2022/08/28 10:36:04;;;;;;;0.50;0.30;;;35.00;45.70;;;;;;5035308;28;20434;-77
2022/08/28 10:38:39;;;;;;;1.10;0.70;;;34.70;46.20;;;;;;5034386;28;20449;-77
2022/08/28 10:41:09;;;;;;;0.50;0.30;;;34.10;46.20;;;;;;5035487;28;20476;-77
2022/08/28 10:43:42;;;;;;;0.70;0.40;;;34.50;47.10;;;;;;5035300;28;20437;-77
2022/08/28 10:46:13;;;;;;;0.50;0.30;;;33.90;46.40;;;;;;5034851;28;20940;-78
2022/08/28 10:48:46;;;;;;;0.50;0.30;;;34.10;47.20;;;;;;5035275;28;20419;-76
2022/08/28 10:51:19;;;;;;;0.50;0.30;;;34.50;46.90;;;;;;5034605;28;20434;-78
2022/08/28 10:53:53;;;;;;;0.50;0.30;;;33.60;47.30;;;;;;5033901;28;20450;-77
2022/08/28 10:56:23;;;;;;;0.50;0.30;;;34.30;46.40;;;;;;5033509;28;20521;-78
2022/08/28 10:58:54;;;;;;;1.00;0.90;;;33.30;47.10;;;;;;5033480;28;20418;-75
2022/08/28 11:01:27;;;;;;;0.50;0.30;;;34.60;46.90;;;;;;5033716;28;20484;-77
2022/08/28 11:03:57;;;;;;;0.70;0.50;;;35.50;45.50;;;;;;5033606;28;20445;-75
2022/08/28 11:06:30;;;;;;;0.50;0.30;;;35.50;45.20;;;;;;5033340;28;20549;-76
2022/08/28 11:09:23;;;;;;;0.60;0.60;;;34.20;45.10;;;;;;5029781;28;20438;-78
2022/08/28 11:11:49;;;;;;;0.50;0.30;;;34.30;45.70;;;;;;5021828;28;20431;-78
2022/08/28 11:14:25;;;;;;;0.50;0.30;;;35.40;46.00;;;;;;5013374;28;20457;-77
2022/08/28 11:16:55;;;;;;;0.50;0.30;;;35.90;44.40;;;;;;5013495;28;20473;-78
2022/08/28 11:19:38;;;;;;;0.50;0.30;;;35.40;44.20;;;;;;5013201;28;20450;-78
2022/08/28 11:22:12;;;;;;;0.50;0.40;;;35.50;44.10;;;;;;5013714;28;20496;-78
2022/08/28 11:24:51;;;;;;;0.50;0.40;;;35.80;45.00;;;;;;5013282;28;20438;-79
2022/08/28 11:27:25;;;;;;;0.43;0.30;;;35.50;44.70;;;;;;5013164;28;20458;-79
2022/08/28 11:30:31;;;;;;;0.43;0.30;;;35.70;45.10;;;;;;5013510;28;20556;-78
2022/08/28 11:33:09;;;;;;;0.40;0.30;;;36.30;45.00;;;;;;5014767;28;20778;-79
2022/08/28 11:35:43;;;;;;;0.40;0.30;;;37.30;43.20;;;;;;5012897;28;20467;-79
2022/08/28 11:38:10;;;;;;;0.40;0.30;;;37.00;43.20;;;;;;5013101;28;20466;-78
2022/08/28 11:40:56;;;;;;;0.40;0.30;;;37.30;42.00;;;;;;5013229;28;20439;-78
2022/08/28 11:43:37;;;;;;;0.50;0.30;;;36.70;43.10;;;;;;5013172;28;20900;-75
2022/08/28 11:46:26;;;;;;;0.40;0.30;;;36.10;43.90;;;;;;5012062;28;20446;-77
2022/08/28 11:48:55;;;;;;;0.50;0.50;;;35.30;43.60;;;;;;5013097;28;20447;-78
2022/08/28 11:51:50;;;;;;;0.60;0.40;;;35.20;44.60;;;;;;5013177;28;20897;-78
2022/08/28 11:54:39;;;;;;;0.50;0.40;;;35.20;44.20;;;;;;5010110;28;20944;-78
2022/08/28 11:57:13;;;;;;;0.70;0.70;;;34.90;43.80;;;;;;5012831;28;20462;-78
2022/08/28 12:00:07;;;;;;;0.40;0.30;;;33.60;46.20;;;;;;5012730;28;20449;-78
2022/08/28 12:02:50;;;;;;;0.43;0.30;;;34.80;46.30;;;;;;4999132;28;20485;-78
2022/08/28 12:05:38;;;;;;;0.90;0.60;;;35.70;44.40;;;;;;5012826;28;20435;-78
2022/08/28 12:08:05;;;;;;;0.63;0.63;;;35.50;44.60;;;;;;5012125;28;21047;-78
2022/08/28 12:10:57;;;;;;;0.47;0.30;;;36.40;43.80;;;;;;5012573;28;20442;-78
2022/08/28 12:13:49;;;;;;;0.40;0.30;;;37.10;43.00;;;;;;5012532;28;20451;-76
2022/08/28 12:16:16;;;;;;;0.50;0.40;;;37.50;42.00;;;;;;5012630;28;20427;-78
2022/08/28 12:19:04;;;;;;;0.40;0.30;;;36.70;41.30;;;;;;5012808;28;20529;-79
2022/08/28 12:21:37;;;;;;;0.40;0.30;;;36.50;43.70;;;;;;5007169;28;20856;-78
2022/08/28 12:24:12;;;;;;;0.40;0.30;;;36.30;42.40;;;;;;5012071;28;20860;-78
2022/08/28 12:26:44;;;;;;;0.40;0.30;;;36.30;42.80;;;;;;5012430;28;21039;-78
2022/08/28 12:29:28;;;;;;;0.40;0.40;;;36.60;43.10;;;;;;5012667;28;20441;-78
2022/08/28 12:32:31;;;;;;;0.50;0.30;;;36.50;42.90;;;;;;5011949;28;20435;-78
2022/08/28 12:35:14;;;;;;;0.40;0.30;;;37.00;42.40;;;;;;4951244;29;20432;-79
2022/08/28 12:37:44;;;;;;;0.50;0.40;;;37.20;42.10;;;;;;5007076;28;20471;-77
2022/08/28 12:40:17;;;;;;;0.40;0.30;;;36.90;42.80;;;;;;5012039;28;20424;-78
2022/08/28 12:42:51;;;;;;;0.40;0.30;;;36.70;42.30;;;;;;5012116;28;21050;-79
2022/08/28 12:45:25;;;;;;;0.50;0.30;;;36.00;42.10;;;;;;5011676;28;20462;-78
2022/08/28 12:47:55;;;;;;;0.47;0.30;;;36.10;42.40;;;;;;5012350;28;20828;-78
2022/08/28 12:50:29;;;;;;;0.40;0.30;;;36.40;42.00;;;;;;5011921;28;20418;-78
2022/08/28 12:52:59;;;;;;;0.40;0.30;;;37.00;42.00;;;;;;5011864;28;20444;-76
2022/08/28 12:55:27;;;;;;;0.40;0.30;;;36.80;41.80;;;;;;5011408;28;20494;-75
2022/08/28 12:57:54;;;;;;;0.50;0.30;;;36.10;41.80;;;;;;5012016;28;20976;-78
2022/08/28 13:00:26;;;;;;;0.43;0.30;;;35.50;42.40;;;;;;5011881;28;20779;-79
2022/08/28 13:02:56;;;;;;;0.50;0.30;;;34.40;43.60;;;;;;5011703;28;20467;-78
2022/08/28 13:05:28;;;;;;;1.20;0.57;;;33.00;45.30;;;;;;5011832;28;20445;-77
2022/08/28 13:07:56;;;;;;;0.50;0.30;;;32.70;45.10;;;;;;5011145;28;20497;-77
2022/08/28 13:10:25;;;;;;;0.50;0.30;;;33.40;46.40;;;;;;5013053;28;20534;-76
2022/08/28 13:12:54;;;;;;;0.50;0.30;;;34.20;45.30;;;;;;5012125;28;20449;-78